sensor_id;sensor_type;location;lat;lon;timestamp;pressure;altitude;pressure_sealevel;temperature;humidity
71778;BME280;59609;52.430;4.668;2022-08-19T00:01:27;101513.88;;;17.62;100.00
71778;BME280;59609;52.430;4.668;2022-08-19T00:03:55;101528.66;;;17.63;100.00
71778;BME280;59609;52.430;4.668;2022-08-19T00:06:20;101513.47;;;17.65;100.00
71778;BME280;59609;52.430;4.668;2022-08-19T00:08:45;101524.69;;;17.72;100.00
71778;BME280;59609;52.430;4.668;2022-08-19T00:11:11;101519.81;;;17.74;100.00
71778;BME280;59609;52.430;4.668;2022-08-19T00:13:36;101520.38;;;17.69;100.00
71778;BME280;59609;52.430;4.668;2022-08-19T00:16:03;101519.25;;;17.64;100.00
71778;BME280;59609;52.430;4.668;2022-08-19T00:18:28;101528.88;;;17.61;100.00
71778;BME280;59609;52.430;4.668;2022-08-19T00:20:54;101517.44;;;17.56;100.00
71778;BME280;59609;52.430;4.668;2022-08-19T00:23:19;101522.34;;;17.54;100.00
71778;BME280;59609;52.430;4.668;2022-08-19T00:25:45;101522.34;;;17.54;100.00
71778;BME280;59609;52.430;4.668;2022-08-19T00:28:11;101515.59;;;17.48;100.00
71778;BME280;59609;52.430;4.668;2022-08-19T00:30:36;101513.69;;;17.49;100.00
71778;BME280;59609;52.430;4.668;2022-08-19T00:33:02;101514.47;;;17.43;100.00
71778;BME280;59609;52.430;4.668;2022-08-19T00:35:27;101506.22;;;17.35;100.00
71778;BME280;59609;52.430;4.668;2022-08-19T00:37:53;101502.69;;;17.26;100.00
71778;BME280;59609;52.430;4.668;2022-08-19T00:40:21;101521.78;;;17.29;100.00
71778;BME280;59609;52.430;4.668;2022-08-19T00:42:46;101527.94;;;17.25;100.00
71778;BME280;59609;52.430;4.668;2022-08-19T00:45:15;101529.88;;;17.24;100.00
71778;BME280;59609;52.430;4.668;2022-08-19T00:47:43;101519.56;;;17.25;100.00
71778;BME280;59609;52.430;4.668;2022-08-19T00:50:10;101528.31;;;17.22;100.00
71778;BME280;59609;52.430;4.668;2022-08-19T00:52:40;101536.09;;;17.26;100.00
71778;BME280;59609;52.430;4.668;2022-08-19T00:55:13;101524.97;;;17.26;100.00
71778;BME280;59609;52.430;4.668;2022-08-19T00:57:41;101522.09;;;17.34;100.00
71778;BME280;59609;52.430;4.668;2022-08-19T01:00:13;101516.44;;;17.28;100.00
71778;BME280;59609;52.430;4.668;2022-08-19T01:02:40;101512.28;;;17.24;100.00
71778;BME280;59609;52.430;4.668;2022-08-19T01:05:08;101512.69;;;17.21;100.00
71778;BME280;59609;52.430;4.668;2022-08-19T01:07:35;101516.53;;;17.20;100.00
71778;BME280;59609;52.430;4.668;2022-08-19T01:10:04;101521.22;;;17.19;100.00
71778;BME280;59609;52.430;4.668;2022-08-19T01:12:30;101509.50;;;17.24;100.00
71778;BME280;59609;52.430;4.668;2022-08-19T01:14:56;101516.69;;;17.18;100.00
71778;BME280;59609;52.430;4.668;2022-08-19T01:17:22;101512.38;;;17.16;100.00
71778;BME280;59609;52.430;4.668;2022-08-19T01:19:49;101513.66;;;17.13;100.00
71778;BME280;59609;52.430;4.668;2022-08-19T01:24:48;101524.56;;;17.29;100.00
71778;BME280;59609;52.430;4.668;2022-08-19T01:27:14;101525.91;;;17.33;100.00
71778;BME280;59609;52.430;4.668;2022-08-19T01:29:42;101526.56;;;17.35;100.00
71778;BME280;59609;52.430;4.668;2022-08-19T01:32:14;101519.94;;;17.36;100.00
71778;BME280;59609;52.430;4.668;2022-08-19T01:34:41;101530.63;;;17.33;100.00
71778;BME280;59609;52.430;4.668;2022-08-19T01:37:11;101536.75;;;17.43;100.00
71778;BME280;59609;52.430;4.668;2022-08-19T01:39:38;101533.31;;;17.41;100.00
71778;BME280;59609;52.430;4.668;2022-08-19T01:42:05;101527.66;;;17.34;100.00
71778;BME280;59609;52.430;4.668;2022-08-19T01:44:32;101524.78;;;17.28;100.00
71778;BME280;59609;52.430;4.668;2022-08-19T01:46:57;101521.69;;;17.23;100.00
71778;BME280;59609;52.430;4.668;2022-08-19T01:49:24;101513.00;;;17.11;100.00
71778;BME280;59609;52.430;4.668;2022-08-19T01:51:52;101513.34;;;17.08;100.00
71778;BME280;59609;52.430;4.668;2022-08-19T01:54:20;101524.22;;;17.03;100.00
71778;BME280;59609;52.430;4.668;2022-08-19T01:56:45;101535.75;;;17.00;100.00
71778;BME280;59609;52.430;4.668;2022-08-19T01:59:17;101539.06;;;17.25;100.00
71778;BME280;59609;52.430;4.668;2022-08-19T02:01:43;101529.19;;;17.22;100.00
71778;BME280;59609;52.430;4.668;2022-08-19T02:04:09;101531.41;;;17.27;100.00
71778;BME280;59609;52.430;4.668;2022-08-19T02:06:35;101516.22;;;17.15;100.00
71778;BME280;59609;52.430;4.668;2022-08-19T02:09:00;101519.78;;;17.23;100.00
71778;BME280;59609;52.430;4.668;2022-08-19T02:11:29;101524.78;;;17.28;100.00
71778;BME280;59609;52.430;4.668;2022-08-19T02:13:57;101524.09;;;17.26;100.00
71778;BME280;59609;52.430;4.668;2022-08-19T02:16:23;101519.69;;;17.17;100.00
71778;BME280;59609;52.430;4.668;2022-08-19T02:18:49;101518.03;;;17.22;100.00
71778;BME280;59609;52.430;4.668;2022-08-19T02:21:20;101521.44;;;17.18;100.00
71778;BME280;59609;52.430;4.668;2022-08-19T02:23:46;101515.78;;;17.11;100.00
71778;BME280;59609;52.430;4.668;2022-08-19T02:26:12;101515.09;;;17.09;100.00
71778;BME280;59609;52.430;4.668;2022-08-19T02:28:38;101526.03;;;17.11;100.00
71778;BME280;59609;52.430;4.668;2022-08-19T02:31:16;101526.31;;;17.16;100.00
71778;BME280;59609;52.430;4.668;2022-08-19T02:33:42;101521.44;;;17.18;100.00
71778;BME280;59609;52.430;4.668;2022-08-19T02:36:08;101527.44;;;17.21;100.00
71778;BME280;59609;52.430;4.668;2022-08-19T02:38:34;101528.22;;;17.30;100.00
71778;BME280;59609;52.430;4.668;2022-08-19T02:41:18;101514.69;;;17.27;100.00
71778;BME280;59609;52.430;4.668;2022-08-19T02:43:44;101520.19;;;17.20;100.00
71778;BME280;59609;52.430;4.668;2022-08-19T02:48:37;101517.00;;;17.09;100.00
71778;BME280;59609;52.430;4.668;2022-08-19T02:51:03;101512.22;;;17.03;100.00
71778;BME280;59609;52.430;4.668;2022-08-19T02:53:29;101507.22;;;16.98;100.00
71778;BME280;59609;52.430;4.668;2022-08-19T02:55:54;101511.34;;;17.02;100.00
71778;BME280;59609;52.430;4.668;2022-08-19T02:58:21;101521.03;;;17.06;100.00
71778;BME280;59609;52.430;4.668;2022-08-19T03:00:50;101510.09;;;17.05;100.00
71778;BME280;59609;52.430;4.668;2022-08-19T03:03:16;101500.19;;;17.02;100.00
71778;BME280;59609;52.430;4.668;2022-08-19T03:05:42;101483.22;;;16.97;100.00
71778;BME280;59609;52.430;4.668;2022-08-19T03:08:09;101485.72;;;16.92;100.00
71778;BME280;59609;52.430;4.668;2022-08-19T03:10:55;101468.66;;;16.80;100.00
71778;BME280;59609;52.430;4.668;2022-08-19T03:13:21;101475.25;;;16.79;100.00
71778;BME280;59609;52.430;4.668;2022-08-19T03:15:47;101474.28;;;16.72;100.00
71778;BME280;59609;52.430;4.668;2022-08-19T03:18:14;101465.69;;;16.67;100.00
71778;BME280;59609;52.430;4.668;2022-08-19T03:20:42;101478.22;;;16.63;100.00
71778;BME280;59609;52.430;4.668;2022-08-19T03:23:08;101474.47;;;16.56;100.00
71778;BME280;59609;52.430;4.668;2022-08-19T03:25:39;101487.13;;;16.59;100.00
71778;BME280;59609;52.430;4.668;2022-08-19T03:28:07;101485.97;;;16.53;100.00
71778;BME280;59609;52.430;4.668;2022-08-19T03:30:33;101484.22;;;16.52;100.00
71778;BME280;59609;52.430;4.668;2022-08-19T03:32:59;101477.63;;;16.53;100.00
71778;BME280;59609;52.430;4.668;2022-08-19T03:35:24;101483.19;;;16.53;100.00
71778;BME280;59609;52.430;4.668;2022-08-19T03:37:49;101477.56;;;16.61;100.00
71778;BME280;59609;52.430;4.668;2022-08-19T03:40:15;101476.69;;;16.75;100.00
71778;BME280;59609;52.430;4.668;2022-08-19T03:42:41;101478.03;;;16.79;100.00
71778;BME280;59609;52.430;4.668;2022-08-19T03:45:07;101470.25;;;16.75;100.00
71778;BME280;59609;52.430;4.668;2022-08-19T03:47:33;101465.69;;;16.67;100.00
71778;BME280;59609;52.430;4.668;2022-08-19T03:49:59;101460.69;;;16.77;100.00
71778;BME280;59609;52.430;4.668;2022-08-19T03:52:24;101469.59;;;16.87;100.00
71778;BME280;59609;52.430;4.668;2022-08-19T03:54:49;101470.84;;;16.85;100.00
71778;BME280;59609;52.430;4.668;2022-08-19T03:57:15;101474.47;;;16.85;100.00
71778;BME280;59609;52.430;4.668;2022-08-19T03:59:40;101480.91;;;16.86;100.00
71778;BME280;59609;52.430;4.668;2022-08-19T04:02:09;101479.41;;;16.83;100.00
71778;BME280;59609;52.430;4.668;2022-08-19T04:04:37;101484.97;;;16.83;100.00
71778;BME280;59609;52.430;4.668;2022-08-19T04:07:03;101481.47;;;16.81;100.00
71778;BME280;59609;52.430;4.668;2022-08-19T04:09:29;101488.78;;;16.82;100.00
71778;BME280;59609;52.430;4.668;2022-08-19T04:11:55;101496.75;;;16.85;100.00
71778;BME280;59609;52.430;4.668;2022-08-19T04:14:25;101485.63;;;16.85;100.00
71778;BME280;59609;52.430;4.668;2022-08-19T04:16:52;101483.69;;;16.86;100.00
71778;BME280;59609;52.430;4.668;2022-08-19T04:19:18;101478.13;;;16.86;100.00
71778;BME280;59609;52.430;4.668;2022-08-19T04:21:47;101491.75;;;16.95;100.00
71778;BME280;59609;52.430;4.668;2022-08-19T04:24:13;101485.06;;;16.90;100.00
71778;BME280;59609;52.430;4.668;2022-08-19T04:26:39;101492.91;;;16.86;100.00
71778;BME280;59609;52.430;4.668;2022-08-19T04:29:13;101502.81;;;16.89;100.00
71778;BME280;59609;52.430;4.668;2022-08-19T04:31:40;101495.69;;;16.86;100.00
71778;BME280;59609;52.430;4.668;2022-08-19T04:34:08;101494.44;;;16.89;100.00
71778;BME280;59609;52.430;4.668;2022-08-19T04:36:36;101485.22;;;16.88;100.00
71778;BME280;59609;52.430;4.668;2022-08-19T04:39:06;101485.16;;;16.96;100.00
71778;BME280;59609;52.430;4.668;2022-08-19T04:41:32;101481.88;;;16.93;100.00
71778;BME280;59609;52.430;4.668;2022-08-19T04:44:16;101486.19;;;16.95;100.00
71778;BME280;59609;52.430;4.668;2022-08-19T04:46:43;101491.66;;;17.04;100.00
71778;BME280;59609;52.430;4.668;2022-08-19T04:49:09;101495.19;;;17.12;100.00
71778;BME280;59609;52.430;4.668;2022-08-19T04:51:35;101482.81;;;17.15;100.00
71778;BME280;59609;52.430;4.668;2022-08-19T04:54:02;101496.25;;;17.26;100.00
71778;BME280;59609;52.430;4.668;2022-08-19T04:56:28;101497.19;;;17.33;100.00
71778;BME280;59609;52.430;4.668;2022-08-19T04:58:55;101505.81;;;17.38;100.00
71778;BME280;59609;52.430;4.668;2022-08-19T05:01:24;101502.06;;;17.45;100.00
71778;BME280;59609;52.430;4.668;2022-08-19T05:03:49;101501.66;;;17.48;100.00
71778;BME280;59609;52.430;4.668;2022-08-19T05:06:16;101506.59;;;17.61;100.00
71778;BME280;59609;52.430;4.668;2022-08-19T05:08:44;101505.41;;;17.70;100.00
71778;BME280;59609;52.430;4.668;2022-08-19T05:11:12;101496.41;;;17.75;100.00
71778;BME280;59609;52.430;4.668;2022-08-19T05:13:37;101500.53;;;17.79;100.00
71778;BME280;59609;52.430;4.668;2022-08-19T05:16:03;101508.72;;;17.80;100.00
71778;BME280;59609;52.430;4.668;2022-08-19T05:18:29;101508.91;;;17.79;100.00
71778;BME280;59609;52.430;4.668;2022-08-19T05:21:17;101509.59;;;17.81;100.00
71778;BME280;59609;52.430;4.668;2022-08-19T05:24:03;101503.81;;;17.82;100.00
71778;BME280;59609;52.430;4.668;2022-08-19T05:26:28;101502.53;;;17.85;100.00
71778;BME280;59609;52.430;4.668;2022-08-19T05:28:55;101511.84;;;17.92;100.00
71778;BME280;59609;52.430;4.668;2022-08-19T05:31:21;101511.50;;;18.01;100.00
71778;BME280;59609;52.430;4.668;2022-08-19T05:33:47;101511.13;;;18.05;100.00
71778;BME280;59609;52.430;4.668;2022-08-19T05:36:12;101504.94;;;18.09;100.00
71778;BME280;59609;52.430;4.668;2022-08-19T05:38:39;101507.13;;;18.14;100.00
71778;BME280;59609;52.430;4.668;2022-08-19T05:41:12;101499.25;;;18.17;100.00
71778;BME280;59609;52.430;4.668;2022-08-19T05:43:39;101502.28;;;18.22;100.00
71778;BME280;59609;52.430;4.668;2022-08-19T05:46:05;101498.63;;;18.22;100.00
71778;BME280;59609;52.430;4.668;2022-08-19T05:48:32;101500.34;;;18.23;100.00
71778;BME280;59609;52.430;4.668;2022-08-19T05:50:58;101489.66;;;18.26;100.00
71778;BME280;59609;52.430;4.668;2022-08-19T05:53:25;101489.06;;;18.31;100.00
71778;BME280;59609;52.430;4.668;2022-08-19T05:55:50;101488.44;;;18.35;100.00
71778;BME280;59609;52.430;4.668;2022-08-19T05:58:15;101495.56;;;18.38;100.00
71778;BME280;59609;52.430;4.668;2022-08-19T06:00:43;101492.38;;;18.41;100.00
71778;BME280;59609;52.430;4.668;2022-08-19T06:03:10;101487.31;;;18.51;100.00
71778;BME280;59609;52.430;4.668;2022-08-19T06:05:35;101498.69;;;18.77;100.00
71778;BME280;59609;52.430;4.668;2022-08-19T06:08:01;101500.38;;;18.78;100.00
71778;BME280;59609;52.430;4.668;2022-08-19T06:10:26;101498.75;;;18.90;100.00
71778;BME280;59609;52.430;4.668;2022-08-19T06:12:52;101505.53;;;19.09;100.00
71778;BME280;59609;52.430;4.668;2022-08-19T06:15:18;101495.19;;;19.03;100.00
71778;BME280;59609;52.430;4.668;2022-08-19T06:17:43;101503.19;;;19.13;100.00
71778;BME280;59609;52.430;4.668;2022-08-19T06:20:14;101504.91;;;19.14;100.00
71778;BME280;59609;52.430;4.668;2022-08-19T06:22:45;101506.97;;;19.39;100.00
71778;BME280;59609;52.430;4.668;2022-08-19T06:25:12;101501.34;;;19.33;100.00
71778;BME280;59609;52.430;4.668;2022-08-19T06:27:39;101498.00;;;19.44;100.00
71778;BME280;59609;52.430;4.668;2022-08-19T06:30:05;101505.97;;;19.47;100.00
71778;BME280;59609;52.430;4.668;2022-08-19T06:32:31;101493.47;;;19.43;100.00
71778;BME280;59609;52.430;4.668;2022-08-19T06:34:57;101500.16;;;19.55;100.00
71778;BME280;59609;52.430;4.668;2022-08-19T06:37:23;101500.59;;;19.59;100.00
71778;BME280;59609;52.430;4.668;2022-08-19T06:39:49;101502.81;;;19.70;100.00
71778;BME280;59609;52.430;4.668;2022-08-19T06:42:14;101502.19;;;19.81;100.00
71778;BME280;59609;52.430;4.668;2022-08-19T06:44:46;101494.88;;;19.86;100.00
71778;BME280;59609;52.430;4.668;2022-08-19T06:47:17;101504.81;;;20.15;100.00
71778;BME280;59609;52.430;4.668;2022-08-19T06:49:43;101499.47;;;20.20;99.74
71778;BME280;59609;52.430;4.668;2022-08-19T06:52:10;101496.50;;;20.48;97.90
71778;BME280;59609;52.430;4.668;2022-08-19T06:54:40;101499.94;;;20.43;98.49
71778;BME280;59609;52.430;4.668;2022-08-19T06:57:06;101503.59;;;20.37;98.42
71778;BME280;59609;52.430;4.668;2022-08-19T06:59:34;101495.63;;;20.61;97.76
71778;BME280;59609;52.430;4.668;2022-08-19T07:02:03;101502.09;;;20.68;96.68
71778;BME280;59609;52.430;4.668;2022-08-19T07:04:31;101502.25;;;20.92;96.04
71778;BME280;59609;52.430;4.668;2022-08-19T07:07:06;101501.53;;;21.30;94.29
71778;BME280;59609;52.430;4.668;2022-08-19T07:09:34;101495.72;;;21.31;94.40
71778;BME280;59609;52.430;4.668;2022-08-19T07:12:02;101504.66;;;21.53;93.60
71778;BME280;59609;52.430;4.668;2022-08-19T07:14:28;101510.53;;;21.38;93.83
71778;BME280;59609;52.430;4.668;2022-08-19T07:16:56;101508.41;;;21.34;94.74
71778;BME280;59609;52.430;4.668;2022-08-19T07:19:24;101513.16;;;21.33;95.60
71778;BME280;59609;52.430;4.668;2022-08-19T07:21:53;101512.97;;;21.35;94.52
71778;BME280;59609;52.430;4.668;2022-08-19T07:24:23;101513.56;;;21.43;95.26
71778;BME280;59609;52.430;4.668;2022-08-19T07:26:51;101521.34;;;21.41;93.75
71778;BME280;59609;52.430;4.668;2022-08-19T07:29:18;101514.81;;;21.54;93.22
71778;BME280;59609;52.430;4.668;2022-08-19T07:31:44;101523.47;;;21.39;93.85
71778;BME280;59609;52.430;4.668;2022-08-19T07:34:11;101523.88;;;21.49;93.37
71778;BME280;59609;52.430;4.668;2022-08-19T07:36:39;101528.19;;;21.52;92.74
71778;BME280;59609;52.430;4.668;2022-08-19T07:39:09;101524.19;;;21.22;92.86
71778;BME280;59609;52.430;4.668;2022-08-19T07:41:35;101518.59;;;21.15;93.38
71778;BME280;59609;52.430;4.668;2022-08-19T07:44:03;101524.03;;;21.68;91.88
71778;BME280;59609;52.430;4.668;2022-08-19T07:46:34;101515.44;;;22.00;90.08
71778;BME280;59609;52.430;4.668;2022-08-19T07:49:01;101510.81;;;22.13;88.94
71778;BME280;59609;52.430;4.668;2022-08-19T07:51:27;101519.50;;;22.36;87.96
71778;BME280;59609;52.430;4.668;2022-08-19T07:53:53;101512.03;;;22.79;85.88
71778;BME280;59609;52.430;4.668;2022-08-19T07:56:20;101517.81;;;22.84;82.03
71778;BME280;59609;52.430;4.668;2022-08-19T07:58:48;101518.81;;;23.33;80.19
71778;BME280;59609;52.430;4.668;2022-08-19T08:01:17;101513.03;;;23.28;81.50
71778;BME280;59609;52.430;4.668;2022-08-19T08:03:42;101510.97;;;22.98;82.25
71778;BME280;59609;52.430;4.668;2022-08-19T08:06:26;101520.31;;;22.92;83.38
71778;BME280;59609;52.430;4.668;2022-08-19T08:09:12;101523.94;;;23.36;81.59
71778;BME280;59609;52.430;4.668;2022-08-19T08:11:39;101541.56;;;22.88;81.96
71778;BME280;59609;52.430;4.668;2022-08-19T08:14:06;101543.47;;;22.63;83.42
71778;BME280;59609;52.430;4.668;2022-08-19T08:19:06;101540.97;;;23.23;81.86
71778;BME280;59609;52.430;4.668;2022-08-19T08:21:32;101543.13;;;22.84;82.80
71778;BME280;59609;52.430;4.668;2022-08-19T08:23:58;101539.31;;;23.15;82.26
71778;BME280;59609;52.430;4.668;2022-08-19T09:29:13;101572.13;;;23.03;78.19
71778;BME280;59609;52.430;4.668;2022-08-19T09:31:38;101573.06;;;23.15;79.37
71778;BME280;59609;52.430;4.668;2022-08-19T09:34:03;101568.97;;;23.36;78.71
71778;BME280;59609;52.430;4.668;2022-08-19T09:36:30;101570.78;;;23.48;78.17
71778;BME280;59609;52.430;4.668;2022-08-19T09:38:58;101575.56;;;23.66;78.29
71778;BME280;59609;52.430;4.668;2022-08-19T09:41:25;101570.19;;;23.46;79.14
71778;BME280;59609;52.430;4.668;2022-08-19T09:43:53;101578.25;;;23.61;78.61
71778;BME280;59609;52.430;4.668;2022-08-19T09:46:19;101581.78;;;23.86;76.82
71778;BME280;59609;52.430;4.668;2022-08-19T09:48:46;101592.56;;;23.35;78.00
71778;BME280;59609;52.430;4.668;2022-08-19T09:51:15;101590.44;;;23.55;78.93
71778;BME280;59609;52.430;4.668;2022-08-19T09:53:41;101589.56;;;23.73;78.35
71778;BME280;59609;52.430;4.668;2022-08-19T09:56:07;101588.69;;;23.72;77.20
71778;BME280;59609;52.430;4.668;2022-08-19T09:58:34;101585.81;;;24.08;77.35
71778;BME280;59609;52.430;4.668;2022-08-19T10:01:01;101591.44;;;24.27;74.86
71778;BME280;59609;52.430;4.668;2022-08-19T10:03:28;101579.13;;;24.39;74.52
71778;BME280;59609;52.430;4.668;2022-08-19T10:05:56;101576.09;;;23.93;74.95
71778;BME280;59609;52.430;4.668;2022-08-19T10:08:27;101583.97;;;24.21;74.46
71778;BME280;59609;52.430;4.668;2022-08-19T10:10:54;101570.53;;;24.04;74.40
71778;BME280;59609;52.430;4.668;2022-08-19T10:13:22;101592.50;;;24.14;73.45
71778;BME280;59609;52.430;4.668;2022-08-19T10:15:51;101593.78;;;23.82;75.04
71778;BME280;59609;52.430;4.668;2022-08-19T10:18:19;101598.69;;;24.04;74.89
71778;BME280;59609;52.430;4.668;2022-08-19T10:20:45;101596.19;;;24.15;74.36
71778;BME280;59609;52.430;4.668;2022-08-19T10:23:11;101595.63;;;24.24;72.77
71778;BME280;59609;52.430;4.668;2022-08-19T10:25:37;101596.69;;;24.23;72.98
71778;BME280;59609;52.430;4.668;2022-08-19T10:28:03;101599.63;;;24.17;73.04
71778;BME280;59609;52.430;4.668;2022-08-19T10:30:29;101593.22;;;24.39;72.48
71778;BME280;59609;52.430;4.668;2022-08-19T10:32:54;101590.50;;;24.33;72.51
71778;BME280;59609;52.430;4.668;2022-08-19T10:35:20;101584.56;;;24.23;73.18
71778;BME280;59609;52.430;4.668;2022-08-19T10:37:45;101596.19;;;24.15;72.00
71778;BME280;59609;52.430;4.668;2022-08-19T10:40:11;101591.63;;;24.32;72.44
71778;BME280;59609;52.430;4.668;2022-08-19T10:42:36;101597.53;;;24.83;70.94
71778;BME280;59609;52.430;4.668;2022-08-19T10:45:03;101594.16;;;24.33;72.30
71778;BME280;59609;52.430;4.668;2022-08-19T10:47:28;101597.69;;;24.29;72.54
71778;BME280;59609;52.430;4.668;2022-08-19T10:49:54;101606.88;;;24.54;72.60
71778;BME280;59609;52.430;4.668;2022-08-19T10:52:40;101583.28;;;23.89;74.04
71778;BME280;59609;52.430;4.668;2022-08-19T10:55:07;101593.19;;;24.09;73.29
71778;BME280;59609;52.430;4.668;2022-08-19T10:57:51;101591.63;;;23.95;73.12
71778;BME280;59609;52.430;4.668;2022-08-19T11:00:22;101592.75;;;23.76;73.14
71778;BME280;59609;52.430;4.668;2022-08-19T11:02:48;101595.34;;;24.26;71.82
71778;BME280;59609;52.430;4.668;2022-08-19T11:05:14;101581.91;;;24.28;71.41
71778;BME280;59609;52.430;4.668;2022-08-19T11:07:40;101586.28;;;25.30;69.24
71778;BME280;59609;52.430;4.668;2022-08-19T11:10:06;101593.13;;;25.22;68.56
71778;BME280;59609;52.430;4.668;2022-08-19T11:12:32;101582.72;;;25.57;65.99
71778;BME280;59609;52.430;4.668;2022-08-19T11:14:58;101586.28;;;26.04;65.86
71778;BME280;59609;52.430;4.668;2022-08-19T11:17:23;101590.56;;;26.07;64.66
71778;BME280;59609;52.430;4.668;2022-08-19T11:19:49;101577.31;;;25.68;66.86
71778;BME280;59609;52.430;4.668;2022-08-19T11:22:15;101579.41;;;25.37;65.57
71778;BME280;59609;52.430;4.668;2022-08-19T11:24:41;101580.00;;;26.02;65.18
71778;BME280;59609;52.430;4.668;2022-08-19T11:27:08;101583.63;;;26.26;64.64
71778;BME280;59609;52.430;4.668;2022-08-19T11:29:35;101581.56;;;27.11;61.05
71778;BME280;59609;52.430;4.668;2022-08-19T11:32:05;101588.19;;;26.16;63.03
71778;BME280;59609;52.430;4.668;2022-08-19T11:34:31;101585.75;;;26.19;63.52
71778;BME280;59609;52.430;4.668;2022-08-19T11:36:56;101589.91;;;25.77;63.85
71778;BME280;59609;52.430;4.668;2022-08-19T11:39:27;101580.88;;;25.63;63.72
71778;BME280;59609;52.430;4.668;2022-08-19T11:41:53;101581.72;;;25.52;64.89
71778;BME280;59609;52.430;4.668;2022-08-19T11:44:19;101585.16;;;25.42;64.59
71778;BME280;59609;52.430;4.668;2022-08-19T11:46:45;101592.63;;;25.02;66.71
71778;BME280;59609;52.430;4.668;2022-08-19T11:49:20;101591.59;;;24.62;69.67
71778;BME280;59609;52.430;4.668;2022-08-19T11:51:47;101592.56;;;24.79;69.40
71778;BME280;59609;52.430;4.668;2022-08-19T11:54:14;101589.13;;;24.65;69.61
71778;BME280;59609;52.430;4.668;2022-08-19T11:56:41;101597.16;;;24.50;69.63
71778;BME280;59609;52.430;4.668;2022-08-19T11:59:07;101597.94;;;24.69;69.51
71778;BME280;59609;52.430;4.668;2022-08-19T12:01:33;101597.81;;;25.17;68.36
71778;BME280;59609;52.430;4.668;2022-08-19T12:03:59;101592.38;;;25.73;66.88
71778;BME280;59609;52.430;4.668;2022-08-19T12:06:27;101601.84;;;25.09;66.72
71778;BME280;59609;52.430;4.668;2022-08-19T12:08:59;101585.28;;;25.36;67.12
71778;BME280;59609;52.430;4.668;2022-08-19T12:11:25;101591.91;;;25.30;67.78
71778;BME280;59609;52.430;4.668;2022-08-19T12:13:51;101584.78;;;25.16;67.85
71778;BME280;59609;52.430;4.668;2022-08-19T12:16:25;101591.06;;;25.18;67.93
71778;BME280;59609;52.430;4.668;2022-08-19T12:18:52;101593.16;;;25.34;67.68
71778;BME280;59609;52.430;4.668;2022-08-19T12:21:23;101583.56;;;25.70;65.14
71778;BME280;59609;52.430;4.668;2022-08-19T12:23:50;101601.34;;;25.12;67.09
71778;BME280;59609;52.430;4.668;2022-08-19T12:26:17;101585.03;;;25.37;66.90
71778;BME280;59609;52.430;4.668;2022-08-19T12:28:43;101587.59;;;25.39;66.30
71778;BME280;59609;52.430;4.668;2022-08-19T12:31:09;101579.88;;;26.21;64.29
71778;BME280;59609;52.430;4.668;2022-08-19T12:33:37;101585.22;;;25.82;65.59
71778;BME280;59609;52.430;4.668;2022-08-19T12:36:05;101584.69;;;25.34;67.51
71778;BME280;59609;52.430;4.668;2022-08-19T12:38:31;101581.72;;;25.40;66.31
71778;BME280;59609;52.430;4.668;2022-08-19T12:40:57;101575.50;;;25.38;66.16
71778;BME280;59609;52.430;4.668;2022-08-19T12:43:22;101581.63;;;25.58;66.26
71778;BME280;59609;52.430;4.668;2022-08-19T12:45:48;101578.25;;;25.73;65.41
71778;BME280;59609;52.430;4.668;2022-08-19T12:48:13;101584.28;;;26.17;64.32
71778;BME280;59609;52.430;4.668;2022-08-19T12:50:43;101581.75;;;26.03;64.51
71778;BME280;59609;52.430;4.668;2022-08-19T12:53:13;101578.53;;;26.40;61.76
71778;BME280;59609;52.430;4.668;2022-08-19T12:55:38;101582.13;;;27.13;61.24
71778;BME280;59609;52.430;4.668;2022-08-19T12:58:04;101580.56;;;26.28;62.47
71778;BME280;59609;52.430;4.668;2022-08-19T13:00:29;101581.53;;;26.78;62.09
71778;BME280;59609;52.430;4.668;2022-08-19T13:02:55;101574.22;;;27.16;61.05
71778;BME280;59609;52.430;4.668;2022-08-19T13:05:29;101573.72;;;26.24;62.19
71778;BME280;59609;52.430;4.668;2022-08-19T13:07:57;101573.75;;;26.40;62.66
71778;BME280;59609;52.430;4.668;2022-08-19T13:10:25;101576.19;;;26.65;63.23
71778;BME280;59609;52.430;4.668;2022-08-19T13:12:53;101583.84;;;26.36;63.02
71778;BME280;59609;52.430;4.668;2022-08-19T13:15:20;101579.13;;;26.13;63.92
71778;BME280;59609;52.430;4.668;2022-08-19T13:17:47;101575.22;;;25.40;64.53
71778;BME280;59609;52.430;4.668;2022-08-19T13:20:14;101573.34;;;25.80;63.50
71778;BME280;59609;52.430;4.668;2022-08-19T13:22:39;101566.69;;;25.86;63.71
71778;BME280;59609;52.430;4.668;2022-08-19T13:25:06;101576.06;;;26.15;62.51
71778;BME280;59609;52.430;4.668;2022-08-19T13:27:32;101572.16;;;25.53;64.50
71778;BME280;59609;52.430;4.668;2022-08-19T13:30:00;101575.34;;;25.45;65.55
71778;BME280;59609;52.430;4.668;2022-08-19T13:32:43;101572.16;;;25.30;66.07
71778;BME280;59609;52.430;4.668;2022-08-19T13:35:27;101572.25;;;26.09;63.32
71778;BME280;59609;52.430;4.668;2022-08-19T13:37:52;101574.56;;;26.12;62.76
71778;BME280;59609;52.430;4.668;2022-08-19T13:40:20;101573.22;;;26.43;61.98
71778;BME280;59609;52.430;4.668;2022-08-19T13:42:49;101585.06;;;26.85;61.32
71778;BME280;59609;52.430;4.668;2022-08-19T13:45:18;101579.84;;;26.49;61.07
71778;BME280;59609;52.430;4.668;2022-08-19T13:47:48;101572.97;;;27.06;59.80
71778;BME280;59609;52.430;4.668;2022-08-19T13:50:18;101574.06;;;25.87;62.11
71778;BME280;59609;52.430;4.668;2022-08-19T13:52:44;101575.13;;;25.58;63.70
71778;BME280;59609;52.430;4.668;2022-08-19T13:55:10;101574.00;;;25.47;65.72
71778;BME280;59609;52.430;4.668;2022-08-19T13:57:36;101580.41;;;25.08;66.73